Wetterdaten: Woche 19.10.20 - 25.10.20 (KW43)
Datum Zeit Temp. Aussen Temp. o. S. Temp +5cm Feuchte Auss Luftdruck Regen Sonnenschein Regendauer Solar Windben Empfang
19.10.2020 00:00 9,8 C 9,0 C 8,0 C 94 % 1022,8 hPa 0,0 l/m 0,00 h 0,00 h 0 W/m 0,0 km/h (0 Bft) 97,16 %
19.10.2020 01:00 9,6 C 8,9 C 7,8 C 95 % 1022,9 hPa 0,0 l/m 0,00 h 0,00 h 0 W/m 0,3 km/h (0 Bft) 99,51 %
19.10.2020 02:00 9,6 C 8,9 C 7,8 C 95 % 1022,9 hPa 0,0 l/m 0,00 h 0,00 h 0 W/m 0,3 km/h (0 Bft) 95,55 %
19.10.2020 03:00 9,4 C 8,3 C 7,4 C 96 % 1022,7 hPa 0,0 l/m 0,00 h 0,00 h 0 W/m 0,0 km/h (0 Bft) 96,94 %
19.10.2020 04:00 9,1 C 8,3 C 7,4 C 96 % 1022,8 hPa 0,0 l/m 0,00 h 0,00 h 0 W/m 0,0 km/h (0 Bft) 98,72 %
19.10.2020 05:00 9,0 C 8,2 C 7,2 C 97 % 1022,6 hPa 0,0 l/m 0,00 h 0,00 h 0 W/m 2,7 km/h (1 Bft) 95,75 %
19.10.2020 06:00 8,8 C 7,9 C 7,2 C 97 % 1022,3 hPa 0,0 l/m 0,00 h 0,00 h 0 W/m 2,5 km/h (1 Bft) 97,83 %
19.10.2020 07:00 8,4 C 7,0 C 6,0 C 97 % 1022,2 hPa 0,0 l/m 0,00 h 0,00 h 0 W/m 1,9 km/h (1 Bft) 95,81 %
19.10.2020 08:00 7,5 C 5,9 C 4,8 C 97 % 1022,5 hPa 0,0 l/m 0,00 h 0,00 h 14 W/m 1,0 km/h (0 Bft) 97,47 %
19.10.2020 09:00 7,4 C 8,1 C 6,5 C 98 % 1022,9 hPa 0,0 l/m 0,17 h 0,00 h 83 W/m 2,5 km/h (1 Bft) 98,09 %
19.10.2020 10:00 9,1 C 11,5 C 8,9 C 99 % 1023,0 hPa 0,0 l/m 0,33 h 0,00 h 161 W/m 1,0 km/h (0 Bft) 97,56 %
19.10.2020 11:00 10,2 C 14,9 C 9,7 C 97 % 1022,9 hPa 0,0 l/m 0,80 h 0,00 h 319 W/m 6,5 km/h (2 Bft) 97,20 %
19.10.2020 12:00 12,6 C 18,4 C 10,9 C 85 % 1022,6 hPa 0,0 l/m 1,00 h 0,00 h 477 W/m 14,0 km/h (3 Bft) 98,81 %
19.10.2020 13:00 13,9 C 18,0 C 12,6 C 77 % 1021,8 hPa 0,0 l/m 0,93 h 0,00 h 455 W/m 15,9 km/h (3 Bft) 98,10 %
19.10.2020 14:00 13,7 C 14,1 C 11,6 C 76 % 1021,2 hPa 0,0 l/m 0,10 h 0,00 h 158 W/m 10,6 km/h (2 Bft) 99,29 %
19.10.2020 15:00 13,3 C 13,3 C 11,3 C 76 % 1020,7 hPa 0,0 l/m 0,00 h 0,00 h 120 W/m 8,7 km/h (2 Bft) 93,79 %
19.10.2020 16:00 13,4 C 14,6 C 11,0 C 76 % 1020,1 hPa 0,0 l/m 0,60 h 0,00 h 166 W/m 10,0 km/h (2 Bft) 99,50 %
19.10.2020 17:00 13,4 C 12,3 C 9,9 C 76 % 1019,5 hPa 0,0 l/m 0,13 h 0,00 h 50 W/m 3,1 km/h (1 Bft) 97,63 %
19.10.2020 18:00 12,0 C 10,1 C 8,1 C 79 % 1018,9 hPa 0,0 l/m 0,00 h 0,00 h 12 W/m 1,8 km/h (1 Bft) 96,25 %
19.10.2020 19:00 10,7 C 9,2 C 7,6 C 81 % 1018,7 hPa 0,0 l/m 0,00 h 0,00 h 0 W/m 0,5 km/h (0 Bft) 97,94 %
19.10.2020 20:00 9,2 C 6,9 C 5,3 C 84 % 1018,6 hPa 0,0 l/m 0,00 h 0,00 h 0 W/m 0,0 km/h (0 Bft) 97,57 %
19.10.2020 21:00 8,0 C 6,9 C 5,4 C 87 % 1018,0 hPa 0,0 l/m 0,00 h 0,00 h 0 W/m 0,0 km/h (0 Bft) 97,72 %
19.10.2020 22:00 7,7 C 7,2 C 6,0 C 89 % 1017,3 hPa 0,0 l/m 0,00 h 0,00 h 0 W/m 9,0 km/h (2 Bft) 96,47 %
19.10.2020 23:00 7,8 C 7,1 C 6,0 C 88 % 1016,1 hPa 0,0 l/m 0,00 h 0,00 h 0 W/m 14,8 km/h (3 Bft) 95,89 %
20.10.2020 00:00 8,0 C 7,3 C 6,1 C 86 % 1015,1 hPa 0,0 l/m 0,00 h 0,00 h 0 W/m 19,3 km/h (3 Bft) 96,67 %
20.10.2020 01:00 8,1 C 7,3 C 6,1 C 85 % 1014,4 hPa 0,0 l/m 0,00 h 0,00 h 0 W/m 19,9 km/h (4 Bft) 99,16 %
20.10.2020 02:00 8,0 C 7,4 C 6,1 C 85 % 1013,9 hPa 0,0 l/m 0,00 h 0,00 h 0 W/m 20,4 km/h (4 Bft) 96,05 %
20.10.2020 03:00 8,3 C 7,8 C 6,3 C 83 % 1012,8 hPa 0,0 l/m 0,00 h 0,00 h 0 W/m 24,1 km/h (4 Bft) 95,32 %
20.10.2020 04:00 8,5 C 7,7 C 6,5 C 83 % 1012,0 hPa 0,0 l/m 0,00 h 0,00 h 0 W/m 17,8 km/h (3 Bft) 100,00 %
20.10.2020 05:00 8,3 C 7,8 C 6,1 C 84 % 1011,5 hPa 0,0 l/m 0,00 h 0,00 h 0 W/m 19,6 km/h (3 Bft) 97,29 %
20.10.2020 06:00 8,5 C 7,8 C 6,7 C 84 % 1010,4 hPa 0,0 l/m 0,00 h 0,00 h 0 W/m 21,4 km/h (4 Bft) 96,10 %
20.10.2020 07:00 8,5 C 7,8 C 6,6 C 85 % 1010,4 hPa 0,0 l/m 0,00 h 0,00 h 0 W/m 18,7 km/h (3 Bft) 98,79 %
20.10.2020 08:00 8,8 C 8,3 C 6,9 C 86 % 1009,9 hPa 0,0 l/m 0,00 h 0,00 h 12 W/m 24,7 km/h (4 Bft) 96,65 %
20.10.2020 09:00 9,3 C 9,2 C 7,5 C 86 % 1010,2 hPa 0,0 l/m 0,03 h 0,00 h 53 W/m 19,3 km/h (3 Bft) 98,20 %
20.10.2020 10:00 10,1 C 10,4 C 8,4 C 86 % 1010,3 hPa 0,0 l/m 0,27 h 0,10 h 100 W/m 21,5 km/h (4 Bft) 97,36 %
20.10.2020 11:00 10,4 C 9,5 C 7,9 C 88 % 1010,5 hPa 0,0 l/m 0,00 h 0,20 h 69 W/m 20,4 km/h (4 Bft) 96,91 %
20.10.2020 12:00 10,9 C 10,6 C 9,1 C 90 % 1010,5 hPa 0,0 l/m 0,00 h 0,23 h 71 W/m 20,5 km/h (4 Bft) 98,63 %
20.10.2020 13:00 11,6 C 11,1 C 9,6 C 90 % 1009,9 hPa 0,0 l/m 0,00 h 0,13 h 80 W/m 20,1 km/h (4 Bft) 96,19 %
20.10.2020 14:00 12,3 C 11,8 C 10,2 C 90 % 1009,6 hPa 0,2 l/m 0,00 h 0,33 h 88 W/m 21,3 km/h (4 Bft) 97,00 %
20.10.2020 15:00 12,9 C 12,2 C 10,6 C 89 % 1009,6 hPa 0,0 l/m 0,00 h 0,40 h 72 W/m 19,9 km/h (4 Bft) 98,93 %
20.10.2020 16:00 12,8 C 11,2 C 10,0 C 91 % 1010,1 hPa 0,2 l/m 0,00 h 0,93 h 32 W/m 15,7 km/h (3 Bft) 96,67 %
20.10.2020 17:00 12,5 C 11,1 C 10,0 C 95 % 1009,6 hPa 0,2 l/m 0,00 h 0,53 h 22 W/m 13,0 km/h (3 Bft) 96,10 %
20.10.2020 18:00 12,3 C 11,1 C 10,0 C 96 % 1009,6 hPa 0,0 l/m 0,00 h 0,33 h 7 W/m 11,4 km/h (2 Bft) 97,24 %
20.10.2020 19:00 12,3 C 11,1 C 10,0 C 97 % 1009,7 hPa 0,6 l/m 0,00 h 0,77 h 0 W/m 13,0 km/h (3 Bft) 97,87 %
20.10.2020 20:00 12,3 C 11,1 C 10,0 C 98 % 1009,7 hPa 0,0 l/m 0,00 h 0,27 h 0 W/m 16,2 km/h (3 Bft) 96,94 %
20.10.2020 21:00 12,3 C 11,1 C 10,0 C 98 % 1009,4 hPa 0,0 l/m 0,00 h 0,07 h 0 W/m 12,9 km/h (3 Bft) 95,47 %
20.10.2020 22:00 12,2 C 11,1 C 10,0 C 98 % 1009,0 hPa 0,0 l/m 0,00 h 0,07 h 0 W/m 14,1 km/h (3 Bft) 97,98 %
20.10.2020 23:00 12,0 C 10,8 C 10,0 C 97 % 1008,9 hPa 0,4 l/m 0,00 h 0,80 h 0 W/m 14,1 km/h (3 Bft) 97,51 %
21.10.2020 00:00 11,9 C 10,6 C 10,0 C 98 % 1008,5 hPa 0,4 l/m 0,00 h 0,80 h 0 W/m 11,5 km/h (2 Bft) 97,85 %
21.10.2020 01:00 11,9 C 10,7 C 10,0 C 98 % 1008,0 hPa 0,8 l/m 0,00 h 1,00 h 0 W/m 13,3 km/h (3 Bft) 95,67 %
21.10.2020 02:00 11,9 C 11,1 C 10,0 C 99 % 1007,5 hPa 0,0 l/m 0,00 h 0,17 h 0 W/m 14,6 km/h (3 Bft) 98,26 %
21.10.2020 03:00 11,9 C 11,1 C 10,0 C 99 % 1007,0 hPa 0,2 l/m 0,00 h 0,33 h 0 W/m 12,8 km/h (3 Bft) 97,93 %
21.10.2020 04:00 11,8 C 10,6 C 10,0 C 99 % 1006,3 hPa 0,2 l/m 0,00 h 0,83 h 0 W/m 11,2 km/h (2 Bft) 98,26 %
21.10.2020 05:00 11,7 C 10,6 C 10,0 C 99 % 1006,0 hPa 0,4 l/m 0,00 h 0,93 h 0 W/m 10,8 km/h (2 Bft) 96,83 %
21.10.2020 06:00 11,5 C 10,6 C 9,9 C 99 % 1005,1 hPa 0,4 l/m 0,00 h 0,97 h 0 W/m 12,5 km/h (3 Bft) 96,69 %
21.10.2020 07:00 11,5 C 10,6 C 9,6 C 99 % 1004,7 hPa 0,2 l/m 0,00 h 0,50 h 0 W/m 11,8 km/h (2 Bft) 97,66 %
21.10.2020 08:00 11,4 C 10,5 C 9,6 C 99 % 1004,8 hPa 0,8 l/m 0,00 h 0,93 h 9 W/m 12,4 km/h (3 Bft) 98,71 %
21.10.2020 09:00 11,6 C 10,6 C 10,0 C 99 % 1004,8 hPa 1,0 l/m 0,00 h 0,80 h 18 W/m 15,0 km/h (3 Bft) 96,93 %
21.10.2020 10:00 11,9 C 11,1 C 10,3 C 99 % 1004,5 hPa 0,2 l/m 0,00 h 0,57 h 40 W/m 19,6 km/h (3 Bft) 95,39 %
21.10.2020 11:00 12,1 C 11,5 C 10,6 C 99 % 1004,1 hPa 0,0 l/m 0,00 h 0,10 h 76 W/m 18,0 km/h (3 Bft) 98,17 %
21.10.2020 12:00 12,4 C 11,7 C 10,6 C 97 % 1003,4 hPa 0,0 l/m 0,00 h 0,07 h 36 W/m 14,9 km/h (3 Bft) 98,57 %
21.10.2020 13:00 13,3 C 13,2 C 11,4 C 93 % 1002,5 hPa 0,0 l/m 0,00 h 0,00 h 85 W/m 15,3 km/h (3 Bft) 98,15 %
21.10.2020 14:00 17,1 C 21,3 C 14,6 C 83 % 1001,8 hPa 0,0 l/m 0,70 h 0,00 h 373 W/m 30,6 km/h (5 Bft) 95,62 %
21.10.2020 15:00 21,1 C 22,3 C 17,8 C 68 % 1001,5 hPa 0,0 l/m 0,50 h 0,00 h 249 W/m 35,2 km/h (5 Bft) 99,16 %
21.10.2020 16:00 21,2 C 21,7 C 18,2 C 67 % 1001,6 hPa 0,0 l/m 0,53 h 0,00 h 180 W/m 36,7 km/h (5 Bft) 96,29 %
21.10.2020 17:00 21,0 C 20,2 C 17,9 C 68 % 1001,9 hPa 0,0 l/m 0,20 h 0,00 h 51 W/m 34,8 km/h (5 Bft) 97,07 %
21.10.2020 18:00 20,2 C 19,2 C 17,2 C 70 % 1002,6 hPa 0,0 l/m 0,00 h 0,00 h 9 W/m 35,3 km/h (5 Bft) 98,93 %
21.10.2020 19:00 19,5 C 18,4 C 16,6 C 73 % 1003,6 hPa 0,0 l/m 0,00 h 0,00 h 0 W/m 29,6 km/h (5 Bft) 94,81 %
21.10.2020 20:00 19,0 C 18,0 C 16,2 C 75 % 1004,5 hPa 0,0 l/m 0,00 h 0,00 h 0 W/m 30,5 km/h (5 Bft) 97,58 %
21.10.2020 21:00 18,9 C 17,9 C 16,1 C 76 % 1005,4 hPa 0,0 l/m 0,00 h 0,00 h 0 W/m 31,2 km/h (5 Bft) 98,01 %
21.10.2020 22:00 18,3 C 17,2 C 15,6 C 78 % 1006,4 hPa 0,0 l/m 0,00 h 0,00 h 0 W/m 25,1 km/h (4 Bft) 97,08 %
21.10.2020 23:00 18,0 C 17,2 C 15,6 C 81 % 1007,3 hPa 0,0 l/m 0,00 h 0,03 h 0 W/m 21,9 km/h (4 Bft) 99,22 %
22.10.2020 00:00 18,2 C 17,3 C 15,7 C 81 % 1008,3 hPa 0,0 l/m 0,00 h 0,00 h 0 W/m 15,4 km/h (3 Bft) 95,66 %
22.10.2020 01:00 17,7 C 16,7 C 15,0 C 82 % 1009,0 hPa 0,0 l/m 0,00 h 0,00 h 0 W/m 11,8 km/h (2 Bft) 98,15 %
22.10.2020 02:00 17,3 C 16,1 C 14,7 C 82 % 1009,5 hPa 0,0 l/m 0,00 h 0,00 h 0 W/m 14,8 km/h (3 Bft) 99,57 %
22.10.2020 03:00 16,3 C 14,9 C 13,4 C 84 % 1010,0 hPa 0,0 l/m 0,00 h 0,00 h 0 W/m 4,6 km/h (1 Bft) 94,43 %
22.10.2020 04:00 15,2 C 13,3 C 11,4 C 86 % 1010,2 hPa 0,0 l/m 0,00 h 0,00 h 0 W/m 0,5 km/h (0 Bft) 98,47 %
22.10.2020 05:00 14,1 C 13,0 C 11,1 C 89 % 1010,4 hPa 0,0 l/m 0,00 h 0,00 h 0 W/m 0,0 km/h (0 Bft) 99,29 %
22.10.2020 06:00 13,8 C 12,9 C 11,6 C 92 % 1010,3 hPa 0,0 l/m 0,00 h 0,00 h 0 W/m 0,0 km/h (0 Bft) 96,09 %
22.10.2020 07:00 14,0 C 13,4 C 12,2 C 94 % 1010,6 hPa 0,0 l/m 0,00 h 0,00 h 0 W/m 3,1 km/h (1 Bft) 97,79 %
22.10.2020 08:00 14,3 C 13,9 C 12,5 C 94 % 1010,9 hPa 0,0 l/m 0,00 h 0,00 h 7 W/m 0,6 km/h (0 Bft) 97,36 %
22.10.2020 09:00 14,7 C 14,7 C 13,2 C 93 % 1011,8 hPa 0,0 l/m 0,03 h 0,03 h 52 W/m 0,8 km/h (0 Bft) 97,33 %
22.10.2020 10:00 15,9 C 16,2 C 14,5 C 92 % 1012,5 hPa 0,0 l/m 0,07 h 0,02 h 92 W/m 13,8 km/h (3 Bft) 98,68 %
22.10.2020 11:00 16,5 C 16,3 C 14,6 C 90 % 1012,6 hPa 0,0 l/m 0,00 h 0,00 h 73 W/m 6,5 km/h (2 Bft) 95,40 %
22.10.2020 12:00 17,2 C 18,0 C 16,1 C 86 % 1012,5 hPa 0,0 l/m 0,13 h 0,00 h 182 W/m 9,5 km/h (2 Bft) 98,05 %
22.10.2020 13:00 18,3 C 18,6 C 16,8 C 83 % 1012,1 hPa 0,0 l/m 0,13 h 0,00 h 175 W/m 8,0 km/h (2 Bft) 99,15 %
22.10.2020 14:00 18,9 C 19,3 C 17,0 C 81 % 1011,5 hPa 0,0 l/m 0,30 h 0,00 h 181 W/m 12,2 km/h (2 Bft) 96,37 %
22.10.2020 15:00 19,3 C 19,2 C 17,1 C 80 % 1011,1 hPa 0,0 l/m 0,13 h 0,00 h 150 W/m 12,5 km/h (3 Bft) 97,70 %
22.10.2020 16:00 19,6 C 19,8 C 17,2 C 78 % 1010,8 hPa 0,0 l/m 0,43 h 0,00 h 158 W/m 14,5 km/h (3 Bft) 97,53 %
22.10.2020 17:00 18,9 C 16,8 C 15,3 C 81 % 1011,2 hPa 0,0 l/m 0,00 h 0,43 h 26 W/m 8,0 km/h (2 Bft) 97,16 %
22.10.2020 18:00 17,1 C 14,5 C 13,4 C 89 % 1011,2 hPa 0,2 l/m 0,10 h 0,20 h 13 W/m 2,4 km/h (1 Bft) 98,32 %
22.10.2020 19:00 15,8 C 13,9 C 12,8 C 92 % 1011,8 hPa 0,0 l/m 0,00 h 0,00 h 0 W/m 0,4 km/h (0 Bft) 97,66 %
22.10.2020 20:00 15,1 C 13,7 C 12,6 C 95 % 1012,1 hPa 0,0 l/m 0,00 h 0,00 h 0 W/m 0,5 km/h (0 Bft) 96,77 %
22.10.2020 21:00 14,4 C 12,8 C 12,0 C 95 % 1012,3 hPa 0,0 l/m 0,00 h 0,00 h 0 W/m 0,0 km/h (0 Bft) 97,52 %
22.10.2020 22:00 14,2 C 13,0 C 12,1 C 97 % 1012,5 hPa 0,0 l/m 0,00 h 0,00 h 0 W/m 0,2 km/h (0 Bft) 97,65 %
22.10.2020 23:00 13,9 C 12,9 C 11,6 C 97 % 1012,8 hPa 0,0 l/m 0,00 h 0,00 h 0 W/m 0,0 km/h (0 Bft) 97,79 %
23.10.2020 00:00 13,7 C 12,7 C 11,7 C 98 % 1012,8 hPa 0,0 l/m 0,00 h 0,00 h 0 W/m 0,2 km/h (0 Bft) 98,26 %
23.10.2020 01:00 13,3 C 12,2 C 10,8 C 98 % 1012,8 hPa 0,0 l/m 0,00 h 0,00 h 0 W/m 0,0 km/h (0 Bft) 95,45 %
23.10.2020 02:00 13,1 C 12,5 C 11,2 C 98 % 1012,6 hPa 0,0 l/m 0,00 h 0,00 h 0 W/m 0,0 km/h (0 Bft) 98,44 %
23.10.2020 03:00 13,2 C 12,8 C 11,7 C 98 % 1012,5 hPa 0,0 l/m 0,00 h 0,00 h 0 W/m 0,0 km/h (0 Bft) 98,94 %
23.10.2020 04:00 13,4 C 12,5 C 11,8 C 99 % 1012,0 hPa 0,0 l/m 0,00 h 0,00 h 0 W/m 0,0 km/h (0 Bft) 96,05 %
23.10.2020 05:00 13,3 C 12,4 C 11,7 C 99 % 1011,7 hPa 0,0 l/m 0,00 h 0,03 h 0 W/m 0,0 km/h (0 Bft) 97,30 %
23.10.2020 06:00 13,1 C 12,2 C 11,7 C 99 % 1011,3 hPa 0,0 l/m 0,00 h 0,00 h 0 W/m 0,0 km/h (0 Bft) 97,88 %
23.10.2020 07:00 13,1 C 12,3 C 11,8 C 99 % 1011,1 hPa 1,2 l/m 0,00 h 0,53 h 0 W/m 0,2 km/h (0 Bft) 97,15 %
23.10.2020 08:00 13,3 C 12,3 C 11,9 C 99 % 1011,1 hPa 1,8 l/m 0,00 h 0,87 h 6 W/m 0,1 km/h (0 Bft) 99,36 %
23.10.2020 09:00 13,0 C 12,2 C 11,7 C 99 % 1011,4 hPa 2,8 l/m 0,00 h 0,97 h 13 W/m 0,0 km/h (0 Bft) 95,11 %
23.10.2020 10:00 13,0 C 12,3 C 11,9 C 99 % 1011,3 hPa 0,2 l/m 0,00 h 0,47 h 39 W/m 0,1 km/h (0 Bft) 95,66 %
23.10.2020 11:00 13,5 C 12,8 C 12,3 C 100 % 1011,1 hPa 1,2 l/m 0,00 h 0,97 h 46 W/m 0,1 km/h (0 Bft) 99,09 %
23.10.2020 12:00 13,9 C 13,4 C 12,9 C 100 % 1011,1 hPa 1,0 l/m 0,00 h 0,67 h 89 W/m 0,6 km/h (0 Bft) 97,96 %
23.10.2020 13:00 14,7 C 14,5 C 13,8 C 100 % 1010,8 hPa 0,0 l/m 0,00 h 0,10 h 124 W/m 1,2 km/h (1 Bft) 95,78 %
23.10.2020 14:00 15,2 C 14,9 C 14,1 C 100 % 1010,4 hPa 0,0 l/m 0,00 h 0,00 h 117 W/m 2,2 km/h (1 Bft) 95,02 %
23.10.2020 15:00 15,4 C 15,3 C 14,5 C 100 % 1010,2 hPa 0,0 l/m 0,03 h 0,00 h 115 W/m 0,9 km/h (0 Bft) 98,80 %
23.10.2020 16:00 15,6 C 16,7 C 14,3 C 100 % 1010,0 hPa 0,0 l/m 0,50 h 0,00 h 146 W/m 5,0 km/h (1 Bft) 96,89 %
23.10.2020 17:00 15,5 C 14,8 C 13,6 C 98 % 1010,1 hPa 0,0 l/m 0,00 h 0,00 h 37 W/m 1,5 km/h (1 Bft) 96,71 %
23.10.2020 18:00 14,8 C 13,4 C 12,5 C 97 % 1010,4 hPa 0,0 l/m 0,00 h 0,00 h 11 W/m 0,2 km/h (0 Bft) 97,35 %
23.10.2020 19:00 14,1 C 12,8 C 12,2 C 97 % 1010,8 hPa 0,2 l/m 0,00 h 0,00 h 0 W/m 0,1 km/h (0 Bft) 97,02 %
23.10.2020 20:00 13,7 C 12,7 C 12,2 C 98 % 1011,1 hPa 0,0 l/m 0,00 h 0,00 h 0 W/m 0,0 km/h (0 Bft) 98,44 %
23.10.2020 21:00 13,2 C 12,2 C 11,8 C 98 % 1011,2 hPa 0,0 l/m 0,00 h 0,00 h 0 W/m 1,1 km/h (0 Bft) 98,22 %
23.10.2020 22:00 12,7 C 11,7 C 11,6 C 98 % 1011,8 hPa 0,0 l/m 0,00 h 0,00 h 0 W/m 1,4 km/h (1 Bft) 95,92 %
23.10.2020 23:00 12,5 C 12,1 C 11,7 C 99 % 1012,3 hPa 0,0 l/m 0,00 h 0,00 h 0 W/m 2,7 km/h (1 Bft) 97,14 %
24.10.2020 00:00 12,7 C 11,7 C 11,7 C 99 % 1012,6 hPa 0,4 l/m 0,00 h 0,30 h 0 W/m 2,8 km/h (1 Bft) 97,43 %
24.10.2020 01:00 12,3 C 11,1 C 11,2 C 99 % 1012,6 hPa 0,2 l/m 0,00 h 0,00 h 0 W/m 0,9 km/h (0 Bft) 97,42 %
24.10.2020 02:00 11,9 C 10,8 C 10,8 C 99 % 1012,6 hPa 0,0 l/m 0,00 h 0,00 h 0 W/m 2,1 km/h (1 Bft) 99,00 %
24.10.2020 03:00 11,4 C 10,5 C 10,6 C 99 % 1012,7 hPa 0,0 l/m 0,00 h 0,00 h 0 W/m 1,4 km/h (1 Bft) 97,67 %
24.10.2020 04:00 11,2 C 10,1 C 10,1 C 99 % 1012,7 hPa 0,0 l/m 0,00 h 0,00 h 0 W/m 0,6 km/h (0 Bft) 96,25 %
24.10.2020 05:00 11,1 C 10,5 C 10,4 C 99 % 1012,7 hPa 0,0 l/m 0,00 h 0,00 h 0 W/m 3,3 km/h (1 Bft) 96,58 %
24.10.2020 06:00 11,7 C 11,1 C 11,1 C 99 % 1012,8 hPa 0,0 l/m 0,00 h 0,00 h 0 W/m 2,6 km/h (1 Bft) 97,65 %
24.10.2020 07:00 11,8 C 11,1 C 10,8 C 99 % 1012,8 hPa 0,0 l/m 0,00 h 0,00 h 0 W/m 4,4 km/h (1 Bft) 98,57 %
24.10.2020 08:00 11,8 C 11,4 C 10,9 C 99 % 1012,8 hPa 0,0 l/m 0,00 h 0,00 h 12 W/m 1,9 km/h (1 Bft) 97,73 %
24.10.2020 09:00 12,0 C 12,1 C 11,3 C 99 % 1012,9 hPa 0,0 l/m 0,00 h 0,00 h 47 W/m 5,3 km/h (1 Bft) 97,99 %
24.10.2020 10:00 12,8 C 13,4 C 12,5 C 97 % 1012,9 hPa 0,0 l/m 0,10 h 0,00 h 103 W/m 15,6 km/h (3 Bft) 97,01 %
24.10.2020 11:00 13,5 C 13,1 C 12,9 C 91 % 1013,1 hPa 0,0 l/m 0,00 h 0,00 h 108 W/m 26,8 km/h (4 Bft) 96,89 %
24.10.2020 12:00 13,6 C 13,3 C 13,2 C 90 % 1013,1 hPa 0,0 l/m 0,00 h 0,00 h 86 W/m 27,6 km/h (4 Bft) 97,72 %
24.10.2020 13:00 14,1 C 14,7 C 13,9 C 89 % 1012,8 hPa 0,0 l/m 0,30 h 0,10 h 206 W/m 27,3 km/h (4 Bft) 97,79 %
24.10.2020 14:00 15,2 C 15,8 C 14,4 C 83 % 1012,4 hPa 0,0 l/m 0,47 h 0,00 h 193 W/m 28,9 km/h (5 Bft) 95,09 %
24.10.2020 15:00 15,9 C 15,9 C 14,4 C 82 % 1011,8 hPa 0,0 l/m 0,30 h 0,00 h 141 W/m 21,3 km/h (4 Bft) 98,01 %
24.10.2020 16:00 15,7 C 15,0 C 13,9 C 84 % 1011,4 hPa 0,0 l/m 0,00 h 0,00 h 54 W/m 16,9 km/h (3 Bft) 99,30 %
24.10.2020 17:00 15,5 C 14,9 C 13,8 C 85 % 1010,9 hPa 0,0 l/m 0,00 h 0,00 h 32 W/m 18,9 km/h (3 Bft) 96,01 %
24.10.2020 18:00 15,2 C 14,4 C 13,4 C 85 % 1010,5 hPa 0,0 l/m 0,00 h 0,00 h 8 W/m 17,3 km/h (3 Bft) 96,91 %
24.10.2020 19:00 14,8 C 13,9 C 12,9 C 86 % 1010,1 hPa 0,0 l/m 0,00 h 0,00 h 0 W/m 12,2 km/h (2 Bft) 98,57 %
24.10.2020 20:00 14,3 C 13,5 C 12,5 C 88 % 1009,5 hPa 0,0 l/m 0,00 h 0,00 h 0 W/m 12,6 km/h (3 Bft) 97,09 %
24.10.2020 21:00 13,9 C 13,1 C 12,2 C 89 % 1008,8 hPa 0,0 l/m 0,00 h 0,00 h 0 W/m 10,0 km/h (2 Bft) 98,63 %
24.10.2020 22:00 13,8 C 12,9 C 12,0 C 90 % 1008,3 hPa 0,0 l/m 0,00 h 0,00 h 0 W/m 9,9 km/h (2 Bft) 94,77 %
24.10.2020 23:00 13,5 C 12,9 C 12,1 C 91 % 1007,8 hPa 0,0 l/m 0,00 h 0,00 h 0 W/m 8,1 km/h (2 Bft) 97,59 %
25.10.2020 00:00 14,2 C 14,1 C 13,0 C 89 % 1007,3 hPa 0,0 l/m 0,00 h 0,00 h 0 W/m 16,4 km/h (3 Bft) 99,17 %
25.10.2020 01:00 15,3 C 14,7 C 13,6 C 84 % 1006,9 hPa 0,0 l/m 0,00 h 0,00 h 0 W/m 25,6 km/h (4 Bft) 95,45 %
25.10.2020 02:00 15,4 C 14,5 C 13,4 C 83 % 1005,8 hPa 0,0 l/m 0,00 h 0,00 h 0 W/m 25,7 km/h (4 Bft) 97,67 %
25.10.2020 03:00 15,0 C 14,2 C 13,1 C 84 % 1004,9 hPa 0,0 l/m 0,00 h 0,00 h 0 W/m 16,6 km/h (3 Bft) 99,01 %
25.10.2020 04:00 14,5 C 13,9 C 12,8 C 86 % 1004,2 hPa 0,0 l/m 0,00 h 0,00 h 0 W/m 14,2 km/h (3 Bft) 95,55 %
25.10.2020 05:00 14,7 C 13,9 C 12,8 C 84 % 1003,7 hPa 0,0 l/m 0,00 h 0,00 h 0 W/m 14,6 km/h (3 Bft) 97,81 %
25.10.2020 06:00 14,7 C 13,9 C 12,8 C 83 % 1003,6 hPa 0,0 l/m 0,00 h 0,00 h 0 W/m 20,5 km/h (4 Bft) 99,27 %
25.10.2020 07:00 14,4 C 13,5 C 12,3 C 84 % 1003,7 hPa 0,0 l/m 0,00 h 0,13 h 8 W/m 15,7 km/h (3 Bft) 96,53 %
25.10.2020 08:00 14,0 C 12,9 C 11,8 C 86 % 1003,7 hPa 0,0 l/m 0,00 h 0,27 h 17 W/m 15,3 km/h (3 Bft) 96,19 %
25.10.2020 09:00 13,8 C 12,9 C 11,7 C 87 % 1003,7 hPa 0,0 l/m 0,00 h 0,07 h 23 W/m 8,5 km/h (2 Bft) 99,08 %
25.10.2020 10:00 13,7 C 12,3 C 11,2 C 88 % 1003,2 hPa 0,4 l/m 0,00 h 0,70 h 56 W/m 3,0 km/h (1 Bft) 96,97 %
25.10.2020 11:00 13,4 C 11,5 C 10,6 C 92 % 1003,2 hPa 2,2 l/m 0,00 h 0,97 h 43 W/m 1,5 km/h (1 Bft) 96,54 %
25.10.2020 12:00 12,8 C 11,4 C 10,8 C 95 % 1003,6 hPa 1,8 l/m 0,00 h 0,80 h 74 W/m 7,3 km/h (2 Bft) 98,22 %
25.10.2020 13:00 12,5 C 11,4 C 10,7 C 97 % 1002,8 hPa 0,4 l/m 0,00 h 0,50 h 61 W/m 11,8 km/h (2 Bft) 96,94 %
25.10.2020 14:00 12,3 C 11,1 C 10,6 C 96 % 1002,6 hPa 0,2 l/m 0,00 h 0,83 h 59 W/m 4,5 km/h (1 Bft) 99,08 %
25.10.2020 15:00 12,0 C 10,6 C 10,3 C 96 % 1002,4 hPa 0,0 l/m 0,00 h 0,00 h 30 W/m 1,7 km/h (1 Bft) 96,72 %
25.10.2020 16:00 11,9 C 10,7 C 10,1 C 96 % 1002,1 hPa 0,0 l/m 0,00 h 0,20 h 10 W/m 0,7 km/h (0 Bft) 95,88 %
25.10.2020 17:00 12,0 C 10,7 C 10,6 C 97 % 1002,5 hPa 0,2 l/m 0,00 h 0,33 h 0 W/m 0,1 km/h (0 Bft) 99,25 %
25.10.2020 18:00 11,8 C 10,6 C 10,0 C 97 % 1002,7 hPa 0,0 l/m 0,00 h 0,00 h 0 W/m 0,0 km/h (0 Bft) 97,56 %
25.10.2020 19:00 11,5 C 10,6 C 10,0 C 97 % 1002,6 hPa 0,0 l/m 0,00 h 0,00 h 0 W/m 0,1 km/h (0 Bft) 94,85 %
25.10.2020 20:00 11,1 C 10,0 C 9,5 C 97 % 1002,5 hPa 0,0 l/m 0,00 h 0,00 h 0 W/m 0,0 km/h (0 Bft) 97,24 %
25.10.2020 21:00 10,8 C 9,7 C 9,4 C 97 % 1002,3 hPa 0,0 l/m 0,00 h 0,00 h 0 W/m 0,0 km/h (0 Bft) 96,60 %
25.10.2020 22:00 10,4 C 9,4 C 8,9 C 96 % 1002,2 hPa 0,0 l/m 0,00 h 0,00 h 0 W/m 0,6 km/h (0 Bft) 97,86 %
25.10.2020 23:00 10,1 C 9,0 C 8,5 C 96 % 1002,1 hPa 0,0 l/m 0,00 h 0,00 h 0 W/m 0,4 km/h (0 Bft) 97,58 %
Min-Datum _ 19.10.20 19.10.20 19.10.20 21.10.20 21.10.20 - - - - 19.10.20 20.10.20
_ Min-Zeit 09:00 08:44 08:34 17:04 15:16 - - - - 00:00 21:02
Minimum _ 6,9 C 5,0 C 4,5 C 65 % 1001,4 hPa - - - - 0,0 km/h (0 Bft) 39,39 %
Max-Datum _ 21.10.20 21.10.20 21.10.20 23.10.20 19.10.20 23.10.20 19.10.20 21.10.20 24.10.20 21.10.20 19.10.20
_ Max-Zeit 15:28 14:50 16:38 10:50 10:02 09:10 12:08 00:08 13:34 15:14 00:42
Maximum _ 21,5 C 24,4 C 18,9 C 100 % 1023,1 hPa 2,8 l/m 0,07 h 0,07 h 585 W/m 57,9 km/h
S-SO (7 Bft)
100,00 %
Durchschnitt _ 13,2 C 12,5 C 11,3 C 91 % 1010,6 hPa #20,6 l/m #9:20 h #23:45 h 92 W/m 10,1 km/h (2 Bft) 97,37 %
© 2020 W. Hausmann